sensor_id;sensor_type;location;lat;lon;timestamp;P1;durP1;ratioP1;P2;durP2;ratioP2
10651;SDS011;5374;42.742;23.266;2023-12-20T00:00:22;79.93;;;53.00;;
10651;SDS011;5374;42.742;23.266;2023-12-20T00:03:09;82.53;;;52.07;;
10651;SDS011;5374;42.742;23.266;2023-12-20T00:05:56;84.67;;;51.37;;
10651;SDS011;5374;42.742;23.266;2023-12-20T00:08:44;85.70;;;53.70;;
10651;SDS011;5374;42.742;23.266;2023-12-20T00:11:31;82.23;;;51.37;;
10651;SDS011;5374;42.742;23.266;2023-12-20T00:14:18;81.77;;;52.10;;
10651;SDS011;5374;42.742;23.266;2023-12-20T00:17:07;83.40;;;49.73;;
10651;SDS011;5374;42.742;23.266;2023-12-20T00:19:54;72.83;;;48.10;;
10651;SDS011;5374;42.742;23.266;2023-12-20T00:22:41;81.07;;;48.90;;
10651;SDS011;5374;42.742;23.266;2023-12-20T00:25:28;71.27;;;47.07;;
10651;SDS011;5374;42.742;23.266;2023-12-20T00:28:18;73.90;;;46.80;;
10651;SDS011;5374;42.742;23.266;2023-12-20T00:31:05;67.23;;;44.87;;
10651;SDS011;5374;42.742;23.266;2023-12-20T00:33:54;88.37;;;53.10;;
10651;SDS011;5374;42.742;23.266;2023-12-20T00:36:41;283.93;;;128.93;;
10651;SDS011;5374;42.742;23.266;2023-12-20T00:39:32;95.07;;;54.83;;
10651;SDS011;5374;42.742;23.266;2023-12-20T00:42:19;89.47;;;52.80;;
10651;SDS011;5374;42.742;23.266;2023-12-20T00:45:09;122.00;;;64.77;;
10651;SDS011;5374;42.742;23.266;2023-12-20T00:47:59;338.57;;;165.43;;
10651;SDS011;5374;42.742;23.266;2023-12-20T00:50:48;173.40;;;96.60;;
10651;SDS011;5374;42.742;23.266;2023-12-20T00:53:36;128.27;;;71.47;;
10651;SDS011;5374;42.742;23.266;2023-12-20T00:56:26;123.33;;;72.27;;
10651;SDS011;5374;42.742;23.266;2023-12-20T00:59:15;127.17;;;75.43;;
10651;SDS011;5374;42.742;23.266;2023-12-20T01:02:06;108.67;;;62.00;;
10651;SDS011;5374;42.742;23.266;2023-12-20T01:04:54;89.57;;;54.43;;
10651;SDS011;5374;42.742;23.266;2023-12-20T01:07:43;85.20;;;51.33;;
10651;SDS011;5374;42.742;23.266;2023-12-20T01:10:30;84.83;;;50.70;;
10651;SDS011;5374;42.742;23.266;2023-12-20T01:13:18;84.80;;;51.93;;
10651;SDS011;5374;42.742;23.266;2023-12-20T01:16:06;81.20;;;51.50;;
10651;SDS011;5374;42.742;23.266;2023-12-20T01:18:53;83.77;;;51.77;;
10651;SDS011;5374;42.742;23.266;2023-12-20T01:21:43;88.07;;;50.47;;
10651;SDS011;5374;42.742;23.266;2023-12-20T01:24:32;83.20;;;49.77;;
10651;SDS011;5374;42.742;23.266;2023-12-20T01:27:19;74.07;;;46.03;;
10651;SDS011;5374;42.742;23.266;2023-12-20T01:30:07;70.20;;;46.27;;
10651;SDS011;5374;42.742;23.266;2023-12-20T01:32:55;81.23;;;52.13;;
10651;SDS011;5374;42.742;23.266;2023-12-20T01:35:45;95.67;;;53.33;;
10651;SDS011;5374;42.742;23.266;2023-12-20T01:38:32;97.63;;;56.87;;
10651;SDS011;5374;42.742;23.266;2023-12-20T01:41:22;98.90;;;57.53;;
10651;SDS011;5374;42.742;23.266;2023-12-20T01:44:09;125.20;;;63.87;;
10651;SDS011;5374;42.742;23.266;2023-12-20T01:47:00;134.33;;;66.50;;
10651;SDS011;5374;42.742;23.266;2023-12-20T01:49:47;137.97;;;72.70;;
10651;SDS011;5374;42.742;23.266;2023-12-20T01:52:37;137.03;;;69.03;;
10651;SDS011;5374;42.742;23.266;2023-12-20T01:55:24;133.70;;;65.07;;
10651;SDS011;5374;42.742;23.266;2023-12-20T01:58:15;136.00;;;61.63;;
10651;SDS011;5374;42.742;23.266;2023-12-20T02:01:06;131.33;;;67.40;;
10651;SDS011;5374;42.742;23.266;2023-12-20T02:03:54;128.63;;;66.43;;
10651;SDS011;5374;42.742;23.266;2023-12-20T02:06:42;125.07;;;63.97;;
10651;SDS011;5374;42.742;23.266;2023-12-20T02:09:33;136.93;;;65.03;;
10651;SDS011;5374;42.742;23.266;2023-12-20T02:12:23;145.83;;;69.60;;
10651;SDS011;5374;42.742;23.266;2023-12-20T02:15:12;172.30;;;75.57;;
10651;SDS011;5374;42.742;23.266;2023-12-20T02:17:59;166.60;;;73.70;;
10651;SDS011;5374;42.742;23.266;2023-12-20T02:20:46;177.87;;;72.23;;
10651;SDS011;5374;42.742;23.266;2023-12-20T02:23:34;149.87;;;67.83;;
10651;SDS011;5374;42.742;23.266;2023-12-20T02:26:21;150.10;;;67.17;;
10651;SDS011;5374;42.742;23.266;2023-12-20T02:29:09;153.23;;;67.10;;
10651;SDS011;5374;42.742;23.266;2023-12-20T02:31:56;143.43;;;63.23;;
10651;SDS011;5374;42.742;23.266;2023-12-20T02:34:43;141.10;;;62.47;;
10651;SDS011;5374;42.742;23.266;2023-12-20T02:37:31;160.03;;;63.30;;
10651;SDS011;5374;42.742;23.266;2023-12-20T02:40:20;139.10;;;59.87;;
10651;SDS011;5374;42.742;23.266;2023-12-20T02:43:08;149.60;;;63.30;;
10651;SDS011;5374;42.742;23.266;2023-12-20T02:45:55;153.57;;;66.70;;
10651;SDS011;5374;42.742;23.266;2023-12-20T02:48:42;149.20;;;63.47;;
10651;SDS011;5374;42.742;23.266;2023-12-20T02:51:30;147.73;;;62.63;;
10651;SDS011;5374;42.742;23.266;2023-12-20T02:54:17;134.57;;;58.40;;
10651;SDS011;5374;42.742;23.266;2023-12-20T02:57:06;213.00;;;60.27;;
10651;SDS011;5374;42.742;23.266;2023-12-20T02:59:53;159.53;;;56.10;;
10651;SDS011;5374;42.742;23.266;2023-12-20T03:02:40;157.17;;;57.93;;
10651;SDS011;5374;42.742;23.266;2023-12-20T03:05:27;149.63;;;56.60;;
10651;SDS011;5374;42.742;23.266;2023-12-20T03:08:14;145.80;;;56.43;;
10651;SDS011;5374;42.742;23.266;2023-12-20T03:11:01;128.17;;;57.53;;
10651;SDS011;5374;42.742;23.266;2023-12-20T03:13:50;139.53;;;57.70;;
10651;SDS011;5374;42.742;23.266;2023-12-20T03:16:37;147.07;;;55.30;;
10651;SDS011;5374;42.742;23.266;2023-12-20T03:19:24;130.23;;;54.93;;
10651;SDS011;5374;42.742;23.266;2023-12-20T03:22:11;154.90;;;57.53;;
10651;SDS011;5374;42.742;23.266;2023-12-20T03:24:58;164.17;;;55.17;;
10651;SDS011;5374;42.742;23.266;2023-12-20T03:27:45;144.53;;;51.90;;
10651;SDS011;5374;42.742;23.266;2023-12-20T03:30:34;167.60;;;53.37;;
10651;SDS011;5374;42.742;23.266;2023-12-20T03:33:21;117.97;;;50.80;;
10651;SDS011;5374;42.742;23.266;2023-12-20T03:36:08;148.50;;;53.53;;
10651;SDS011;5374;42.742;23.266;2023-12-20T03:39:02;190.47;;;54.57;;
10651;SDS011;5374;42.742;23.266;2023-12-20T03:41:50;158.40;;;52.53;;
10651;SDS011;5374;42.742;23.266;2023-12-20T03:44:38;117.77;;;50.17;;
10651;SDS011;5374;42.742;23.266;2023-12-20T03:47:27;160.03;;;54.73;;
10651;SDS011;5374;42.742;23.266;2023-12-20T03:50:14;153.63;;;53.83;;
10651;SDS011;5374;42.742;23.266;2023-12-20T03:53:01;110.10;;;51.57;;
10651;SDS011;5374;42.742;23.266;2023-12-20T03:55:49;113.83;;;52.13;;
10651;SDS011;5374;42.742;23.266;2023-12-20T03:58:37;157.13;;;53.47;;
10651;SDS011;5374;42.742;23.266;2023-12-20T04:01:27;124.13;;;50.57;;
10651;SDS011;5374;42.742;23.266;2023-12-20T04:04:15;104.60;;;49.63;;
10651;SDS011;5374;42.742;23.266;2023-12-20T04:07:03;115.43;;;51.53;;
10651;SDS011;5374;42.742;23.266;2023-12-20T04:09:50;119.70;;;54.53;;
10651;SDS011;5374;42.742;23.266;2023-12-20T04:12:37;125.63;;;56.73;;
10651;SDS011;5374;42.742;23.266;2023-12-20T04:15:24;137.23;;;51.93;;
10651;SDS011;5374;42.742;23.266;2023-12-20T04:18:11;108.73;;;51.17;;
10651;SDS011;5374;42.742;23.266;2023-12-20T04:21:03;111.20;;;49.03;;
10651;SDS011;5374;42.742;23.266;2023-12-20T04:23:50;137.77;;;51.60;;
10651;SDS011;5374;42.742;23.266;2023-12-20T04:26:38;154.93;;;50.70;;
10651;SDS011;5374;42.742;23.266;2023-12-20T04:29:25;156.40;;;50.13;;
10651;SDS011;5374;42.742;23.266;2023-12-20T04:32:12;142.80;;;47.87;;
10651;SDS011;5374;42.742;23.266;2023-12-20T04:34:59;127.53;;;49.83;;
10651;SDS011;5374;42.742;23.266;2023-12-20T04:37:47;124.83;;;51.50;;
10651;SDS011;5374;42.742;23.266;2023-12-20T04:40:35;124.77;;;53.17;;
10651;SDS011;5374;42.742;23.266;2023-12-20T04:43:23;99.27;;;49.70;;
10651;SDS011;5374;42.742;23.266;2023-12-20T04:46:10;113.07;;;50.13;;
10651;SDS011;5374;42.742;23.266;2023-12-20T04:48:57;117.00;;;52.37;;
10651;SDS011;5374;42.742;23.266;2023-12-20T04:51:44;120.70;;;48.73;;
10651;SDS011;5374;42.742;23.266;2023-12-20T04:54:33;122.20;;;56.00;;
10651;SDS011;5374;42.742;23.266;2023-12-20T04:57:21;142.47;;;51.27;;
10651;SDS011;5374;42.742;23.266;2023-12-20T05:00:08;100.37;;;41.27;;
10651;SDS011;5374;42.742;23.266;2023-12-20T05:02:56;80.40;;;42.37;;
10651;SDS011;5374;42.742;23.266;2023-12-20T05:05:43;110.30;;;44.93;;
10651;SDS011;5374;42.742;23.266;2023-12-20T05:08:30;152.53;;;45.13;;
10651;SDS011;5374;42.742;23.266;2023-12-20T05:11:19;86.63;;;39.33;;
10651;SDS011;5374;42.742;23.266;2023-12-20T05:14:06;86.73;;;34.87;;
10651;SDS011;5374;42.742;23.266;2023-12-20T05:16:54;57.07;;;33.33;;
10651;SDS011;5374;42.742;23.266;2023-12-20T05:19:42;67.43;;;31.40;;
10651;SDS011;5374;42.742;23.266;2023-12-20T05:22:30;59.47;;;30.60;;
10651;SDS011;5374;42.742;23.266;2023-12-20T05:25:17;56.00;;;31.97;;
10651;SDS011;5374;42.742;23.266;2023-12-20T05:28:06;91.27;;;33.97;;
10651;SDS011;5374;42.742;23.266;2023-12-20T05:30:53;72.73;;;31.73;;
10651;SDS011;5374;42.742;23.266;2023-12-20T05:33:40;100.83;;;33.80;;
10651;SDS011;5374;42.742;23.266;2023-12-20T05:36:28;73.70;;;31.27;;
10651;SDS011;5374;42.742;23.266;2023-12-20T05:39:15;53.33;;;27.57;;
10651;SDS011;5374;42.742;23.266;2023-12-20T05:42:02;54.47;;;25.73;;
10651;SDS011;5374;42.742;23.266;2023-12-20T05:44:51;45.53;;;27.63;;
10651;SDS011;5374;42.742;23.266;2023-12-20T05:47:38;63.93;;;28.50;;
10651;SDS011;5374;42.742;23.266;2023-12-20T05:50:25;84.60;;;29.27;;
10651;SDS011;5374;42.742;23.266;2023-12-20T05:53:12;60.83;;;28.00;;
10651;SDS011;5374;42.742;23.266;2023-12-20T05:55:59;50.10;;;27.60;;
10651;SDS011;5374;42.742;23.266;2023-12-20T05:58:46;57.77;;;29.53;;
10651;SDS011;5374;42.742;23.266;2023-12-20T06:01:34;46.87;;;27.03;;
10651;SDS011;5374;42.742;23.266;2023-12-20T06:04:22;48.13;;;26.20;;
10651;SDS011;5374;42.742;23.266;2023-12-20T06:07:11;52.00;;;26.10;;
10651;SDS011;5374;42.742;23.266;2023-12-20T06:09:58;45.23;;;25.60;;
10651;SDS011;5374;42.742;23.266;2023-12-20T06:12:45;43.70;;;26.00;;
10651;SDS011;5374;42.742;23.266;2023-12-20T06:15:35;49.63;;;27.67;;
10651;SDS011;5374;42.742;23.266;2023-12-20T06:18:24;52.43;;;27.70;;
10651;SDS011;5374;42.742;23.266;2023-12-20T06:21:11;56.20;;;30.23;;
10651;SDS011;5374;42.742;23.266;2023-12-20T06:23:58;69.17;;;28.90;;
10651;SDS011;5374;42.742;23.266;2023-12-20T06:26:45;54.13;;;27.53;;
10651;SDS011;5374;42.742;23.266;2023-12-20T06:29:33;53.47;;;28.43;;
10651;SDS011;5374;42.742;23.266;2023-12-20T06:32:21;51.03;;;27.70;;
10651;SDS011;5374;42.742;23.266;2023-12-20T06:35:10;52.70;;;28.97;;
10651;SDS011;5374;42.742;23.266;2023-12-20T06:37:57;62.00;;;31.33;;
10651;SDS011;5374;42.742;23.266;2023-12-20T06:40:44;61.20;;;31.93;;
10651;SDS011;5374;42.742;23.266;2023-12-20T06:43:32;70.27;;;35.47;;
10651;SDS011;5374;42.742;23.266;2023-12-20T06:46:19;62.23;;;34.07;;
10651;SDS011;5374;42.742;23.266;2023-12-20T06:49:06;66.93;;;37.37;;
10651;SDS011;5374;42.742;23.266;2023-12-20T06:51:55;66.80;;;34.10;;
10651;SDS011;5374;42.742;23.266;2023-12-20T06:54:42;80.60;;;34.87;;
10651;SDS011;5374;42.742;23.266;2023-12-20T06:57:29;71.77;;;36.53;;
10651;SDS011;5374;42.742;23.266;2023-12-20T07:00:17;88.83;;;36.93;;
10651;SDS011;5374;42.742;23.266;2023-12-20T07:03:06;106.17;;;39.03;;
10651;SDS011;5374;42.742;23.266;2023-12-20T07:05:53;79.27;;;37.20;;
10651;SDS011;5374;42.742;23.266;2023-12-20T07:08:42;99.20;;;47.90;;
10651;SDS011;5374;42.742;23.266;2023-12-20T07:11:29;140.83;;;76.73;;
10651;SDS011;5374;42.742;23.266;2023-12-20T07:14:16;94.97;;;52.00;;
10651;SDS011;5374;42.742;23.266;2023-12-20T07:17:03;71.43;;;41.43;;
10651;SDS011;5374;42.742;23.266;2023-12-20T07:19:52;80.40;;;45.27;;
10651;SDS011;5374;42.742;23.266;2023-12-20T07:22:42;76.53;;;43.23;;
10651;SDS011;5374;42.742;23.266;2023-12-20T07:25:31;82.53;;;45.07;;
10651;SDS011;5374;42.742;23.266;2023-12-20T07:28:18;69.70;;;37.73;;
10651;SDS011;5374;42.742;23.266;2023-12-20T07:31:05;143.70;;;66.57;;
10651;SDS011;5374;42.742;23.266;2023-12-20T07:33:53;101.07;;;38.03;;
10651;SDS011;5374;42.742;23.266;2023-12-20T07:36:40;95.77;;;49.37;;
10651;SDS011;5374;42.742;23.266;2023-12-20T07:39:27;118.43;;;55.97;;
10651;SDS011;5374;42.742;23.266;2023-12-20T07:42:15;89.90;;;40.90;;
10651;SDS011;5374;42.742;23.266;2023-12-20T07:45:03;88.90;;;41.13;;
10651;SDS011;5374;42.742;23.266;2023-12-20T07:47:50;136.67;;;42.93;;
10651;SDS011;5374;42.742;23.266;2023-12-20T07:50:38;81.20;;;38.50;;
10651;SDS011;5374;42.742;23.266;2023-12-20T07:53:25;78.50;;;36.37;;
10651;SDS011;5374;42.742;23.266;2023-12-20T07:56:15;94.97;;;36.80;;
10651;SDS011;5374;42.742;23.266;2023-12-20T07:59:04;69.07;;;33.20;;
10651;SDS011;5374;42.742;23.266;2023-12-20T08:01:51;68.43;;;33.43;;
10651;SDS011;5374;42.742;23.266;2023-12-20T08:04:38;73.33;;;34.57;;
10651;SDS011;5374;42.742;23.266;2023-12-20T08:07:26;81.43;;;33.87;;
10651;SDS011;5374;42.742;23.266;2023-12-20T08:10:13;82.07;;;36.73;;
10651;SDS011;5374;42.742;23.266;2023-12-20T08:13:00;78.37;;;37.93;;
10651;SDS011;5374;42.742;23.266;2023-12-20T08:15:49;124.97;;;44.63;;
10651;SDS011;5374;42.742;23.266;2023-12-20T08:18:36;77.83;;;40.00;;
10651;SDS011;5374;42.742;23.266;2023-12-20T08:21:23;82.53;;;40.20;;
10651;SDS011;5374;42.742;23.266;2023-12-20T08:24:10;136.20;;;42.43;;
10651;SDS011;5374;42.742;23.266;2023-12-20T08:26:57;72.07;;;39.40;;
10651;SDS011;5374;42.742;23.266;2023-12-20T08:29:44;95.53;;;40.47;;
10651;SDS011;5374;42.742;23.266;2023-12-20T08:32:33;79.00;;;40.63;;
10651;SDS011;5374;42.742;23.266;2023-12-20T08:35:20;93.97;;;44.73;;
10651;SDS011;5374;42.742;23.266;2023-12-20T08:38:07;81.53;;;42.17;;
10651;SDS011;5374;42.742;23.266;2023-12-20T08:40:55;89.00;;;44.77;;
10651;SDS011;5374;42.742;23.266;2023-12-20T08:43:42;84.33;;;44.07;;
10651;SDS011;5374;42.742;23.266;2023-12-20T08:46:29;88.80;;;44.67;;
10651;SDS011;5374;42.742;23.266;2023-12-20T08:49:17;91.77;;;41.93;;
10651;SDS011;5374;42.742;23.266;2023-12-20T08:52:04;89.00;;;45.40;;
10651;SDS011;5374;42.742;23.266;2023-12-20T08:54:52;75.20;;;38.97;;
10651;SDS011;5374;42.742;23.266;2023-12-20T08:57:39;134.87;;;72.47;;
10651;SDS011;5374;42.742;23.266;2023-12-20T09:00:26;74.53;;;41.33;;
10651;SDS011;5374;42.742;23.266;2023-12-20T09:03:15;80.77;;;44.37;;
10651;SDS011;5374;42.742;23.266;2023-12-20T09:06:03;70.83;;;39.27;;
10651;SDS011;5374;42.742;23.266;2023-12-20T09:08:51;81.77;;;41.80;;
10651;SDS011;5374;42.742;23.266;2023-12-20T09:11:38;104.27;;;55.00;;
10651;SDS011;5374;42.742;23.266;2023-12-20T09:14:25;509.20;;;262.03;;
10651;SDS011;5374;42.742;23.266;2023-12-20T09:17:12;138.80;;;66.90;;
10651;SDS011;5374;42.742;23.266;2023-12-20T09:19:59;84.23;;;44.17;;
10651;SDS011;5374;42.742;23.266;2023-12-20T09:22:49;81.37;;;43.37;;
10651;SDS011;5374;42.742;23.266;2023-12-20T09:25:36;82.37;;;45.93;;
10651;SDS011;5374;42.742;23.266;2023-12-20T09:28:23;94.23;;;49.40;;
10651;SDS011;5374;42.742;23.266;2023-12-20T09:31:10;92.63;;;51.27;;
10651;SDS011;5374;42.742;23.266;2023-12-20T09:33:57;107.43;;;52.50;;
10651;SDS011;5374;42.742;23.266;2023-12-20T09:36:44;104.50;;;52.43;;
10651;SDS011;5374;42.742;23.266;2023-12-20T09:39:33;107.73;;;53.63;;
10651;SDS011;5374;42.742;23.266;2023-12-20T09:42:21;108.77;;;54.27;;
10651;SDS011;5374;42.742;23.266;2023-12-20T09:45:11;101.50;;;54.80;;
10651;SDS011;5374;42.742;23.266;2023-12-20T09:48:02;96.63;;;51.33;;
10651;SDS011;5374;42.742;23.266;2023-12-20T09:50:51;122.17;;;65.63;;
10651;SDS011;5374;42.742;23.266;2023-12-20T09:53:38;116.07;;;64.13;;
10651;SDS011;5374;42.742;23.266;2023-12-20T09:56:29;107.73;;;55.33;;
10651;SDS011;5374;42.742;23.266;2023-12-20T09:59:16;94.97;;;52.00;;
10651;SDS011;5374;42.742;23.266;2023-12-20T10:02:03;101.17;;;50.80;;
10651;SDS011;5374;42.742;23.266;2023-12-20T10:04:56;102.80;;;57.00;;
10651;SDS011;5374;42.742;23.266;2023-12-20T10:07:43;135.37;;;71.90;;
10651;SDS011;5374;42.742;23.266;2023-12-20T10:10:30;121.07;;;62.57;;
10651;SDS011;5374;42.742;23.266;2023-12-20T10:13:19;118.60;;;61.90;;
10651;SDS011;5374;42.742;23.266;2023-12-20T10:16:06;113.37;;;60.20;;
10651;SDS011;5374;42.742;23.266;2023-12-20T10:18:54;119.93;;;61.77;;
10651;SDS011;5374;42.742;23.266;2023-12-20T10:21:41;115.90;;;62.70;;
10651;SDS011;5374;42.742;23.266;2023-12-20T10:24:28;107.27;;;57.97;;
10651;SDS011;5374;42.742;23.266;2023-12-20T10:27:16;120.07;;;59.63;;
10651;SDS011;5374;42.742;23.266;2023-12-20T10:30:07;113.97;;;59.47;;
10651;SDS011;5374;42.742;23.266;2023-12-20T10:32:55;112.53;;;59.50;;
10651;SDS011;5374;42.742;23.266;2023-12-20T10:35:42;119.13;;;63.33;;
10651;SDS011;5374;42.742;23.266;2023-12-20T10:38:30;125.17;;;72.27;;
10651;SDS011;5374;42.742;23.266;2023-12-20T10:41:17;121.97;;;64.53;;
10651;SDS011;5374;42.742;23.266;2023-12-20T10:44:09;113.10;;;59.83;;
10651;SDS011;5374;42.742;23.266;2023-12-20T10:46:58;107.53;;;59.20;;
10651;SDS011;5374;42.742;23.266;2023-12-20T10:49:46;107.80;;;61.30;;
10651;SDS011;5374;42.742;23.266;2023-12-20T10:52:33;137.83;;;72.70;;
10651;SDS011;5374;42.742;23.266;2023-12-20T10:55:22;107.60;;;59.17;;
10651;SDS011;5374;42.742;23.266;2023-12-20T10:58:10;114.50;;;60.93;;
10651;SDS011;5374;42.742;23.266;2023-12-20T11:01:00;109.33;;;59.70;;
10651;SDS011;5374;42.742;23.266;2023-12-20T11:03:50;119.27;;;63.13;;
10651;SDS011;5374;42.742;23.266;2023-12-20T11:06:40;114.87;;;62.40;;
10651;SDS011;5374;42.742;23.266;2023-12-20T11:09:35;120.33;;;63.30;;
10651;SDS011;5374;42.742;23.266;2023-12-20T11:12:31;110.43;;;61.20;;
10651;SDS011;5374;42.742;23.266;2023-12-20T11:15:23;137.10;;;73.57;;
10651;SDS011;5374;42.742;23.266;2023-12-20T11:18:12;105.60;;;58.30;;
10651;SDS011;5374;42.742;23.266;2023-12-20T11:21:01;122.60;;;65.07;;
10651;SDS011;5374;42.742;23.266;2023-12-20T11:23:51;116.13;;;62.00;;
10651;SDS011;5374;42.742;23.266;2023-12-20T11:26:38;119.07;;;65.50;;
10651;SDS011;5374;42.742;23.266;2023-12-20T11:29:34;125.23;;;69.00;;
10651;SDS011;5374;42.742;23.266;2023-12-20T11:32:28;119.30;;;62.07;;
10651;SDS011;5374;42.742;23.266;2023-12-20T11:35:19;116.83;;;63.20;;
10651;SDS011;5374;42.742;23.266;2023-12-20T11:38:12;109.33;;;58.77;;
10651;SDS011;5374;42.742;23.266;2023-12-20T11:41:00;121.20;;;61.57;;
10651;SDS011;5374;42.742;23.266;2023-12-20T11:43:49;125.87;;;66.27;;
10651;SDS011;5374;42.742;23.266;2023-12-20T11:46:39;132.57;;;67.70;;
10651;SDS011;5374;42.742;23.266;2023-12-20T11:49:26;129.37;;;65.37;;
10651;SDS011;5374;42.742;23.266;2023-12-20T11:52:14;135.70;;;65.13;;
10651;SDS011;5374;42.742;23.266;2023-12-20T11:55:03;140.03;;;71.70;;
10651;SDS011;5374;42.742;23.266;2023-12-20T11:57:51;140.07;;;72.93;;
10651;SDS011;5374;42.742;23.266;2023-12-20T12:00:39;144.27;;;76.63;;
10651;SDS011;5374;42.742;23.266;2023-12-20T12:03:26;145.20;;;73.47;;
10651;SDS011;5374;42.742;23.266;2023-12-20T12:06:13;155.07;;;82.23;;
10651;SDS011;5374;42.742;23.266;2023-12-20T12:09:00;153.67;;;83.83;;
10651;SDS011;5374;42.742;23.266;2023-12-20T12:11:50;154.90;;;90.30;;
10651;SDS011;5374;42.742;23.266;2023-12-20T12:14:38;164.43;;;88.00;;
10651;SDS011;5374;42.742;23.266;2023-12-20T12:17:26;166.03;;;93.00;;
10651;SDS011;5374;42.742;23.266;2023-12-20T12:20:13;168.23;;;91.97;;
10651;SDS011;5374;42.742;23.266;2023-12-20T12:23:00;187.47;;;106.23;;
10651;SDS011;5374;42.742;23.266;2023-12-20T12:25:48;351.33;;;181.23;;
10651;SDS011;5374;42.742;23.266;2023-12-20T12:28:37;203.73;;;114.57;;
10651;SDS011;5374;42.742;23.266;2023-12-20T12:31:27;200.83;;;113.63;;
10651;SDS011;5374;42.742;23.266;2023-12-20T12:34:14;220.33;;;130.03;;
10651;SDS011;5374;42.742;23.266;2023-12-20T12:37:03;181.07;;;104.20;;
10651;SDS011;5374;42.742;23.266;2023-12-20T12:39:52;197.67;;;113.00;;
10651;SDS011;5374;42.742;23.266;2023-12-20T12:42:40;197.67;;;118.77;;
10651;SDS011;5374;42.742;23.266;2023-12-20T12:45:30;188.33;;;110.97;;
10651;SDS011;5374;42.742;23.266;2023-12-20T12:48:18;189.23;;;106.50;;
10651;SDS011;5374;42.742;23.266;2023-12-20T12:51:05;198.80;;;111.97;;
10651;SDS011;5374;42.742;23.266;2023-12-20T12:53:57;208.57;;;120.83;;
10651;SDS011;5374;42.742;23.266;2023-12-20T12:56:44;193.43;;;108.17;;
10651;SDS011;5374;42.742;23.266;2023-12-20T12:59:33;219.57;;;113.07;;
10651;SDS011;5374;42.742;23.266;2023-12-20T13:02:21;207.27;;;108.47;;
10651;SDS011;5374;42.742;23.266;2023-12-20T13:05:09;208.70;;;116.27;;
10651;SDS011;5374;42.742;23.266;2023-12-20T13:07:56;205.23;;;113.23;;
10651;SDS011;5374;42.742;23.266;2023-12-20T13:10:44;207.23;;;108.53;;
10651;SDS011;5374;42.742;23.266;2023-12-20T13:13:31;208.63;;;108.17;;
10651;SDS011;5374;42.742;23.266;2023-12-20T13:16:18;190.70;;;97.43;;
10651;SDS011;5374;42.742;23.266;2023-12-20T13:19:06;198.47;;;106.53;;
10651;SDS011;5374;42.742;23.266;2023-12-20T13:21:55;191.97;;;102.43;;
10651;SDS011;5374;42.742;23.266;2023-12-20T13:24:43;178.23;;;93.13;;
10651;SDS011;5374;42.742;23.266;2023-12-20T13:27:30;179.27;;;94.90;;
10651;SDS011;5374;42.742;23.266;2023-12-20T13:30:18;179.57;;;91.50;;
10651;SDS011;5374;42.742;23.266;2023-12-20T13:33:05;184.07;;;95.47;;
10651;SDS011;5374;42.742;23.266;2023-12-20T13:35:54;162.03;;;86.87;;
10651;SDS011;5374;42.742;23.266;2023-12-20T13:38:43;167.07;;;89.10;;
10651;SDS011;5374;42.742;23.266;2023-12-20T13:41:30;163.17;;;87.83;;
10651;SDS011;5374;42.742;23.266;2023-12-20T13:44:17;169.83;;;89.43;;
10651;SDS011;5374;42.742;23.266;2023-12-20T13:47:05;168.70;;;94.40;;
10651;SDS011;5374;42.742;23.266;2023-12-20T13:49:52;158.80;;;79.10;;
10651;SDS011;5374;42.742;23.266;2023-12-20T13:52:40;164.27;;;83.20;;
10651;SDS011;5374;42.742;23.266;2023-12-20T13:55:27;147.60;;;74.37;;
10651;SDS011;5374;42.742;23.266;2023-12-20T13:58:15;174.33;;;81.10;;
10651;SDS011;5374;42.742;23.266;2023-12-20T14:01:02;167.30;;;77.53;;
10651;SDS011;5374;42.742;23.266;2023-12-20T14:03:50;151.27;;;75.87;;
10651;SDS011;5374;42.742;23.266;2023-12-20T14:06:37;157.10;;;76.67;;
10651;SDS011;5374;42.742;23.266;2023-12-20T14:09:25;153.67;;;77.33;;
10651;SDS011;5374;42.742;23.266;2023-12-20T14:12:12;160.40;;;78.67;;
10651;SDS011;5374;42.742;23.266;2023-12-20T14:15:00;153.57;;;78.00;;
10651;SDS011;5374;42.742;23.266;2023-12-20T14:17:47;159.83;;;78.90;;
10651;SDS011;5374;42.742;23.266;2023-12-20T14:20:34;180.00;;;80.37;;
10651;SDS011;5374;42.742;23.266;2023-12-20T14:23:21;186.53;;;82.00;;
10651;SDS011;5374;42.742;23.266;2023-12-20T14:26:10;235.20;;;89.60;;
10651;SDS011;5374;42.742;23.266;2023-12-20T14:28:59;173.07;;;88.23;;
10651;SDS011;5374;42.742;23.266;2023-12-20T14:31:46;174.83;;;87.57;;
10651;SDS011;5374;42.742;23.266;2023-12-20T14:34:35;156.87;;;86.43;;
10651;SDS011;5374;42.742;23.266;2023-12-20T14:37:23;211.43;;;89.03;;
10651;SDS011;5374;42.742;23.266;2023-12-20T14:40:10;167.47;;;82.47;;
10651;SDS011;5374;42.742;23.266;2023-12-20T14:43:03;193.10;;;95.50;;
10651;SDS011;5374;42.742;23.266;2023-12-20T14:45:50;170.50;;;81.97;;
10651;SDS011;5374;42.742;23.266;2023-12-20T14:48:37;305.60;;;85.10;;
10651;SDS011;5374;42.742;23.266;2023-12-20T14:51:24;166.63;;;75.90;;
10651;SDS011;5374;42.742;23.266;2023-12-20T14:54:11;150.60;;;70.20;;
10651;SDS011;5374;42.742;23.266;2023-12-20T14:56:59;143.17;;;72.27;;
10651;SDS011;5374;42.742;23.266;2023-12-20T14:59:47;153.87;;;77.30;;
10651;SDS011;5374;42.742;23.266;2023-12-20T15:02:34;161.30;;;76.30;;
10651;SDS011;5374;42.742;23.266;2023-12-20T15:05:21;169.43;;;80.53;;
10651;SDS011;5374;42.742;23.266;2023-12-20T15:08:08;202.07;;;82.50;;
10651;SDS011;5374;42.742;23.266;2023-12-20T15:10:56;162.20;;;83.27;;
10651;SDS011;5374;42.742;23.266;2023-12-20T15:13:43;179.20;;;84.43;;
10651;SDS011;5374;42.742;23.266;2023-12-20T15:16:34;173.77;;;84.90;;
10651;SDS011;5374;42.742;23.266;2023-12-20T15:19:21;166.60;;;85.53;;
10651;SDS011;5374;42.742;23.266;2023-12-20T15:22:09;467.20;;;183.93;;
10651;SDS011;5374;42.742;23.266;2023-12-20T15:24:56;228.20;;;110.00;;
10651;SDS011;5374;42.742;23.266;2023-12-20T15:27:43;183.97;;;89.53;;
10651;SDS011;5374;42.742;23.266;2023-12-20T15:30:34;206.83;;;97.17;;
10651;SDS011;5374;42.742;23.266;2023-12-20T15:33:29;182.77;;;93.13;;
10651;SDS011;5374;42.742;23.266;2023-12-20T15:36:16;206.70;;;83.80;;
10651;SDS011;5374;42.742;23.266;2023-12-20T15:39:03;166.97;;;80.03;;
10651;SDS011;5374;42.742;23.266;2023-12-20T15:41:50;151.80;;;69.23;;
10651;SDS011;5374;42.742;23.266;2023-12-20T15:44:37;128.77;;;67.63;;
10651;SDS011;5374;42.742;23.266;2023-12-20T15:47:24;157.50;;;66.53;;
10651;SDS011;5374;42.742;23.266;2023-12-20T15:50:13;167.97;;;66.03;;
10651;SDS011;5374;42.742;23.266;2023-12-20T15:53:00;123.43;;;61.70;;
10651;SDS011;5374;42.742;23.266;2023-12-20T15:55:48;158.77;;;72.70;;
10651;SDS011;5374;42.742;23.266;2023-12-20T15:58:36;162.47;;;74.07;;
10651;SDS011;5374;42.742;23.266;2023-12-20T16:01:23;151.00;;;75.27;;
10651;SDS011;5374;42.742;23.266;2023-12-20T16:04:11;146.80;;;71.43;;
10651;SDS011;5374;42.742;23.266;2023-12-20T16:06:59;160.80;;;67.77;;
10651;SDS011;5374;42.742;23.266;2023-12-20T16:09:46;140.53;;;66.80;;